sensor_id;sensor_type;location;lat;lon;timestamp;P1;durP1;ratioP1;P2;durP2;ratioP2
34978;SDS011;21185;50.978;13.720;2024-03-08T00:00:31;27.15;;;12.15;;
34978;SDS011;21185;50.978;13.720;2024-03-08T00:05:35;30.67;;;13.93;;
34978;SDS011;21185;50.978;13.720;2024-03-08T00:10:37;24.60;;;11.77;;
34978;SDS011;21185;50.978;13.720;2024-03-08T00:15:41;28.70;;;12.88;;
34978;SDS011;21185;50.978;13.720;2024-03-08T00:20:43;28.00;;;11.85;;
34978;SDS011;21185;50.978;13.720;2024-03-08T00:25:46;27.35;;;12.65;;
34978;SDS011;21185;50.978;13.720;2024-03-08T00:30:49;25.95;;;11.43;;
34978;SDS011;21185;50.978;13.720;2024-03-08T00:35:51;28.98;;;13.57;;
34978;SDS011;21185;50.978;13.720;2024-03-08T00:40:54;23.50;;;11.80;;
34978;SDS011;21185;50.978;13.720;2024-03-08T00:45:57;28.30;;;12.15;;
34978;SDS011;21185;50.978;13.720;2024-03-08T00:51:00;28.52;;;13.50;;
34978;SDS011;21185;50.978;13.720;2024-03-08T00:56:03;28.33;;;12.85;;
34978;SDS011;21185;50.978;13.720;2024-03-08T01:01:06;26.42;;;12.82;;
34978;SDS011;21185;50.978;13.720;2024-03-08T01:06:08;29.60;;;13.00;;
34978;SDS011;21185;50.978;13.720;2024-03-08T01:11:12;22.90;;;11.30;;
34978;SDS011;21185;50.978;13.720;2024-03-08T01:16:16;26.92;;;12.18;;
34978;SDS011;21185;50.978;13.720;2024-03-08T01:21:18;30.02;;;11.88;;
34978;SDS011;21185;50.978;13.720;2024-03-08T01:26:20;26.42;;;11.50;;
34978;SDS011;21185;50.978;13.720;2024-03-08T01:31:23;28.23;;;12.95;;
34978;SDS011;21185;50.978;13.720;2024-03-08T01:36:25;30.75;;;14.25;;
34978;SDS011;21185;50.978;13.720;2024-03-08T01:41:28;25.98;;;11.80;;
34978;SDS011;21185;50.978;13.720;2024-03-08T01:46:32;27.48;;;11.38;;
34978;SDS011;21185;50.978;13.720;2024-03-08T01:51:36;27.92;;;12.15;;
34978;SDS011;21185;50.978;13.720;2024-03-08T01:56:38;25.50;;;11.23;;
34978;SDS011;21185;50.978;13.720;2024-03-08T02:01:44;27.40;;;12.18;;
34978;SDS011;21185;50.978;13.720;2024-03-08T02:06:46;31.90;;;10.95;;
34978;SDS011;21185;50.978;13.720;2024-03-08T02:11:58;29.92;;;12.25;;
34978;SDS011;21185;50.978;13.720;2024-03-08T02:17:06;28.58;;;12.20;;
34978;SDS011;21185;50.978;13.720;2024-03-08T02:22:09;23.58;;;11.88;;
34978;SDS011;21185;50.978;13.720;2024-03-08T02:27:11;27.58;;;11.65;;
34978;SDS011;21185;50.978;13.720;2024-03-08T02:32:14;30.80;;;13.35;;
34978;SDS011;21185;50.978;13.720;2024-03-08T02:37:17;32.63;;;14.48;;
34978;SDS011;21185;50.978;13.720;2024-03-08T02:42:20;34.17;;;13.73;;
34978;SDS011;21185;50.978;13.720;2024-03-08T02:47:22;26.65;;;12.98;;
34978;SDS011;21185;50.978;13.720;2024-03-08T02:52:28;30.40;;;14.32;;
34978;SDS011;21185;50.978;13.720;2024-03-08T02:57:30;27.02;;;12.10;;
34978;SDS011;21185;50.978;13.720;2024-03-08T03:02:33;25.55;;;11.80;;
34978;SDS011;21185;50.978;13.720;2024-03-08T03:07:37;30.75;;;14.20;;
34978;SDS011;21185;50.978;13.720;2024-03-08T03:12:39;29.20;;;13.35;;
34978;SDS011;21185;50.978;13.720;2024-03-08T03:17:41;25.77;;;12.85;;
34978;SDS011;21185;50.978;13.720;2024-03-08T03:22:48;26.83;;;12.88;;
34978;SDS011;21185;50.978;13.720;2024-03-08T03:27:53;31.95;;;15.23;;
34978;SDS011;21185;50.978;13.720;2024-03-08T03:33:00;27.75;;;13.07;;
34978;SDS011;21185;50.978;13.720;2024-03-08T03:38:03;33.03;;;13.57;;
34978;SDS011;21185;50.978;13.720;2024-03-08T03:43:11;27.23;;;12.25;;
34978;SDS011;21185;50.978;13.720;2024-03-08T03:48:13;28.38;;;13.73;;
34978;SDS011;21185;50.978;13.720;2024-03-08T03:53:16;28.60;;;11.45;;
34978;SDS011;21185;50.978;13.720;2024-03-08T03:58:18;30.52;;;15.50;;
34978;SDS011;21185;50.978;13.720;2024-03-08T04:03:25;28.67;;;11.98;;
34978;SDS011;21185;50.978;13.720;2024-03-08T04:08:27;31.40;;;13.32;;
34978;SDS011;21185;50.978;13.720;2024-03-08T04:13:29;30.27;;;14.02;;
34978;SDS011;21185;50.978;13.720;2024-03-08T04:18:31;25.42;;;11.95;;
34978;SDS011;21185;50.978;13.720;2024-03-08T04:23:34;23.88;;;11.27;;
34978;SDS011;21185;50.978;13.720;2024-03-08T04:28:39;23.52;;;11.40;;
34978;SDS011;21185;50.978;13.720;2024-03-08T04:33:41;24.58;;;11.07;;
34978;SDS011;21185;50.978;13.720;2024-03-08T04:38:44;30.02;;;13.80;;
34978;SDS011;21185;50.978;13.720;2024-03-08T04:43:46;33.00;;;13.90;;
34978;SDS011;21185;50.978;13.720;2024-03-08T04:48:48;27.88;;;12.43;;
34978;SDS011;21185;50.978;13.720;2024-03-08T04:53:51;24.17;;;11.10;;
34978;SDS011;21185;50.978;13.720;2024-03-08T04:58:53;28.83;;;13.07;;
34978;SDS011;21185;50.978;13.720;2024-03-08T05:03:55;32.88;;;12.43;;
34978;SDS011;21185;50.978;13.720;2024-03-08T05:09:03;28.23;;;13.02;;
34978;SDS011;21185;50.978;13.720;2024-03-08T05:14:16;25.17;;;12.10;;
34978;SDS011;21185;50.978;13.720;2024-03-08T05:19:19;27.83;;;12.27;;
34978;SDS011;21185;50.978;13.720;2024-03-08T05:24:22;26.85;;;12.38;;
34978;SDS011;21185;50.978;13.720;2024-03-08T05:29:24;29.05;;;11.80;;
34978;SDS011;21185;50.978;13.720;2024-03-08T05:34:26;27.20;;;12.13;;
34978;SDS011;21185;50.978;13.720;2024-03-08T05:39:30;29.52;;;12.77;;
34978;SDS011;21185;50.978;13.720;2024-03-08T05:44:32;29.42;;;11.82;;
34978;SDS011;21185;50.978;13.720;2024-03-08T05:49:35;30.73;;;12.30;;
34978;SDS011;21185;50.978;13.720;2024-03-08T05:54:37;31.88;;;13.38;;
34978;SDS011;21185;50.978;13.720;2024-03-08T05:59:48;39.08;;;15.32;;
34978;SDS011;21185;50.978;13.720;2024-03-08T06:05:10;29.55;;;12.65;;
34978;SDS011;21185;50.978;13.720;2024-03-08T06:10:12;31.42;;;13.52;;
34978;SDS011;21185;50.978;13.720;2024-03-08T06:15:15;24.27;;;11.38;;
34978;SDS011;21185;50.978;13.720;2024-03-08T06:26:18;31.30;;;12.48;;
34978;SDS011;21185;50.978;13.720;2024-03-08T06:31:20;30.77;;;13.90;;
34978;SDS011;21185;50.978;13.720;2024-03-08T06:36:23;34.08;;;14.82;;
34978;SDS011;21185;50.978;13.720;2024-03-08T06:41:26;33.22;;;15.30;;
34978;SDS011;21185;50.978;13.720;2024-03-08T06:46:28;33.75;;;14.40;;
34978;SDS011;21185;50.978;13.720;2024-03-08T06:51:31;34.47;;;16.38;;
34978;SDS011;21185;50.978;13.720;2024-03-08T06:56:34;29.35;;;14.13;;
34978;SDS011;21185;50.978;13.720;2024-03-08T07:01:37;33.10;;;13.18;;
34978;SDS011;21185;50.978;13.720;2024-03-08T07:06:40;44.45;;;17.83;;
34978;SDS011;21185;50.978;13.720;2024-03-08T07:11:42;29.05;;;13.82;;
34978;SDS011;21185;50.978;13.720;2024-03-08T07:16:46;32.00;;;14.13;;
34978;SDS011;21185;50.978;13.720;2024-03-08T07:21:48;32.63;;;13.63;;
34978;SDS011;21185;50.978;13.720;2024-03-08T07:26:51;33.88;;;12.95;;
34978;SDS011;21185;50.978;13.720;2024-03-08T07:37:28;32.47;;;13.40;;
34978;SDS011;21185;50.978;13.720;2024-03-08T07:42:30;37.17;;;14.13;;
34978;SDS011;21185;50.978;13.720;2024-03-08T07:47:33;29.48;;;13.73;;
34978;SDS011;21185;50.978;13.720;2024-03-08T07:52:38;35.45;;;15.48;;
34978;SDS011;21185;50.978;13.720;2024-03-08T07:57:42;34.53;;;15.55;;
34978;SDS011;21185;50.978;13.720;2024-03-08T08:02:44;33.40;;;15.63;;
34978;SDS011;21185;50.978;13.720;2024-03-08T08:07:51;32.67;;;14.88;;
34978;SDS011;21185;50.978;13.720;2024-03-08T08:12:55;34.95;;;14.63;;
34978;SDS011;21185;50.978;13.720;2024-03-08T08:18:22;41.35;;;16.27;;
34978;SDS011;21185;50.978;13.720;2024-03-08T08:23:29;26.52;;;14.57;;
34978;SDS011;21185;50.978;13.720;2024-03-08T08:28:31;34.20;;;14.88;;
34978;SDS011;21185;50.978;13.720;2024-03-08T08:33:34;30.92;;;15.20;;
34978;SDS011;21185;50.978;13.720;2024-03-08T08:38:37;37.00;;;15.88;;
34978;SDS011;21185;50.978;13.720;2024-03-08T08:43:39;33.40;;;14.80;;
34978;SDS011;21185;50.978;13.720;2024-03-08T08:48:59;48.47;;;17.83;;
34978;SDS011;21185;50.978;13.720;2024-03-08T08:54:03;40.58;;;16.55;;
34978;SDS011;21185;50.978;13.720;2024-03-08T08:59:06;43.35;;;18.08;;
34978;SDS011;21185;50.978;13.720;2024-03-08T09:04:09;46.85;;;20.27;;
34978;SDS011;21185;50.978;13.720;2024-03-08T09:09:13;57.63;;;23.67;;
34978;SDS011;21185;50.978;13.720;2024-03-08T09:14:15;39.05;;;14.85;;
34978;SDS011;21185;50.978;13.720;2024-03-08T09:19:17;32.25;;;14.10;;
34978;SDS011;21185;50.978;13.720;2024-03-08T09:24:30;28.73;;;13.35;;
34978;SDS011;21185;50.978;13.720;2024-03-08T09:29:33;33.38;;;14.45;;
34978;SDS011;21185;50.978;13.720;2024-03-08T09:34:37;32.42;;;15.65;;
34978;SDS011;21185;50.978;13.720;2024-03-08T09:39:39;30.08;;;14.30;;
34978;SDS011;21185;50.978;13.720;2024-03-08T09:44:45;33.80;;;15.43;;
34978;SDS011;21185;50.978;13.720;2024-03-08T09:49:48;38.65;;;14.85;;
34978;SDS011;21185;50.978;13.720;2024-03-08T09:54:50;32.30;;;13.65;;
34978;SDS011;21185;50.978;13.720;2024-03-08T09:59:55;29.42;;;13.80;;
34978;SDS011;21185;50.978;13.720;2024-03-08T10:04:58;29.92;;;13.90;;
34978;SDS011;21185;50.978;13.720;2024-03-08T10:10:01;29.63;;;13.57;;
34978;SDS011;21185;50.978;13.720;2024-03-08T10:21:21;26.45;;;13.15;;
34978;SDS011;21185;50.978;13.720;2024-03-08T10:26:24;26.80;;;11.95;;
34978;SDS011;21185;50.978;13.720;2024-03-08T10:31:27;23.67;;;11.18;;
34978;SDS011;21185;50.978;13.720;2024-03-08T10:36:30;31.35;;;12.63;;
34978;SDS011;21185;50.978;13.720;2024-03-08T10:41:34;25.17;;;11.00;;
34978;SDS011;21185;50.978;13.720;2024-03-08T10:47:00;22.35;;;11.75;;
34978;SDS011;21185;50.978;13.720;2024-03-08T10:52:11;26.52;;;11.65;;
34978;SDS011;21185;50.978;13.720;2024-03-08T10:57:15;24.98;;;11.30;;
34978;SDS011;21185;50.978;13.720;2024-03-08T11:02:20;29.98;;;14.70;;
34978;SDS011;21185;50.978;13.720;2024-03-08T11:07:24;23.95;;;11.48;;
34978;SDS011;21185;50.978;13.720;2024-03-08T11:12:29;28.60;;;11.90;;
34978;SDS011;21185;50.978;13.720;2024-03-08T11:17:41;24.95;;;11.90;;
34978;SDS011;21185;50.978;13.720;2024-03-08T11:23:09;25.95;;;12.80;;
34978;SDS011;21185;50.978;13.720;2024-03-08T11:33:22;21.08;;;10.52;;
34978;SDS011;21185;50.978;13.720;2024-03-08T11:38:31;26.48;;;11.15;;
34978;SDS011;21185;50.978;13.720;2024-03-08T11:43:35;25.45;;;11.23;;
34978;SDS011;21185;50.978;13.720;2024-03-08T11:48:38;24.40;;;10.32;;
34978;SDS011;21185;50.978;13.720;2024-03-08T11:53:43;21.98;;;11.85;;
34978;SDS011;21185;50.978;13.720;2024-03-08T11:58:52;21.77;;;10.55;;
34978;SDS011;21185;50.978;13.720;2024-03-08T12:04:01;25.17;;;10.50;;
34978;SDS011;21185;50.978;13.720;2024-03-08T12:09:10;23.13;;;10.75;;
34978;SDS011;21185;50.978;13.720;2024-03-08T12:14:15;22.48;;;10.35;;
34978;SDS011;21185;50.978;13.720;2024-03-08T12:19:17;18.08;;;9.25;;
34978;SDS011;21185;50.978;13.720;2024-03-08T12:24:33;21.02;;;10.77;;
34978;SDS011;21185;50.978;13.720;2024-03-08T12:29:37;16.98;;;8.98;;
34978;SDS011;21185;50.978;13.720;2024-03-08T12:34:41;21.08;;;8.85;;
34978;SDS011;21185;50.978;13.720;2024-03-08T12:39:44;17.08;;;8.60;;
34978;SDS011;21185;50.978;13.720;2024-03-08T12:44:48;21.83;;;9.23;;
34978;SDS011;21185;50.978;13.720;2024-03-08T12:49:50;15.63;;;7.50;;
34978;SDS011;21185;50.978;13.720;2024-03-08T12:54:53;19.77;;;8.57;;
34978;SDS011;21185;50.978;13.720;2024-03-08T12:59:55;19.13;;;8.07;;
34978;SDS011;21185;50.978;13.720;2024-03-08T13:04:57;18.33;;;8.30;;
34978;SDS011;21185;50.978;13.720;2024-03-08T13:10:01;15.55;;;8.63;;
34978;SDS011;21185;50.978;13.720;2024-03-08T13:15:03;21.83;;;10.93;;
34978;SDS011;21185;50.978;13.720;2024-03-08T13:20:07;21.60;;;9.75;;
34978;SDS011;21185;50.978;13.720;2024-03-08T13:25:10;17.05;;;7.68;;
34978;SDS011;21185;50.978;13.720;2024-03-08T13:30:15;18.45;;;7.85;;
34978;SDS011;21185;50.978;13.720;2024-03-08T13:35:20;18.38;;;8.68;;
34978;SDS011;21185;50.978;13.720;2024-03-08T13:40:32;17.42;;;8.60;;
34978;SDS011;21185;50.978;13.720;2024-03-08T13:45:35;19.23;;;7.85;;
34978;SDS011;21185;50.978;13.720;2024-03-08T13:55:47;14.40;;;6.68;;
34978;SDS011;21185;50.978;13.720;2024-03-08T14:00:49;15.60;;;7.10;;
34978;SDS011;21185;50.978;13.720;2024-03-08T14:05:53;13.75;;;7.22;;
34978;SDS011;21185;50.978;13.720;2024-03-08T14:10:57;14.63;;;6.60;;
34978;SDS011;21185;50.978;13.720;2024-03-08T14:16:00;14.05;;;6.03;;
34978;SDS011;21185;50.978;13.720;2024-03-08T14:21:03;11.75;;;5.43;;
34978;SDS011;21185;50.978;13.720;2024-03-08T14:26:06;12.20;;;6.18;;
34978;SDS011;21185;50.978;13.720;2024-03-08T14:31:10;10.48;;;5.05;;
34978;SDS011;21185;50.978;13.720;2024-03-08T14:36:13;12.50;;;5.95;;
34978;SDS011;21185;50.978;13.720;2024-03-08T14:41:16;15.65;;;5.47;;
34978;SDS011;21185;50.978;13.720;2024-03-08T14:46:19;10.90;;;6.00;;
34978;SDS011;21185;50.978;13.720;2024-03-08T14:56:51;12.20;;;6.43;;
34978;SDS011;21185;50.978;13.720;2024-03-08T15:01:54;16.05;;;5.65;;
34978;SDS011;21185;50.978;13.720;2024-03-08T15:06:56;10.43;;;5.05;;
34978;SDS011;21185;50.978;13.720;2024-03-08T15:12:01;9.68;;;5.13;;
34978;SDS011;21185;50.978;13.720;2024-03-08T15:17:08;13.68;;;5.70;;
34978;SDS011;21185;50.978;13.720;2024-03-08T15:22:14;14.25;;;5.78;;
34978;SDS011;21185;50.978;13.720;2024-03-08T15:27:19;13.00;;;6.13;;
34978;SDS011;21185;50.978;13.720;2024-03-08T15:32:21;15.30;;;5.82;;
34978;SDS011;21185;50.978;13.720;2024-03-08T15:37:24;12.55;;;5.72;;
34978;SDS011;21185;50.978;13.720;2024-03-08T15:42:27;11.52;;;6.43;;
34978;SDS011;21185;50.978;13.720;2024-03-08T15:47:29;12.75;;;6.72;;
34978;SDS011;21185;50.978;13.720;2024-03-08T15:52:31;15.60;;;7.45;;
34978;SDS011;21185;50.978;13.720;2024-03-08T15:57:33;16.27;;;6.93;;
34978;SDS011;21185;50.978;13.720;2024-03-08T16:02:38;14.27;;;7.45;;
34978;SDS011;21185;50.978;13.720;2024-03-08T16:07:42;15.93;;;7.90;;
34978;SDS011;21185;50.978;13.720;2024-03-08T16:12:44;14.77;;;6.40;;
34978;SDS011;21185;50.978;13.720;2024-03-08T16:17:47;15.50;;;7.03;;
34978;SDS011;21185;50.978;13.720;2024-03-08T16:22:49;14.23;;;7.70;;
34978;SDS011;21185;50.978;13.720;2024-03-08T16:27:55;23.17;;;10.00;;
34978;SDS011;21185;50.978;13.720;2024-03-08T16:32:58;16.17;;;8.15;;
34978;SDS011;21185;50.978;13.720;2024-03-08T16:38:01;16.73;;;7.93;;
34978;SDS011;21185;50.978;13.720;2024-03-08T16:43:03;20.95;;;7.45;;
34978;SDS011;21185;50.978;13.720;2024-03-08T16:48:06;13.77;;;7.72;;
34978;SDS011;21185;50.978;13.720;2024-03-08T16:53:10;20.77;;;9.38;;
34978;SDS011;21185;50.978;13.720;2024-03-08T16:58:13;16.50;;;8.43;;
34978;SDS011;21185;50.978;13.720;2024-03-08T17:03:19;16.45;;;8.63;;
34978;SDS011;21185;50.978;13.720;2024-03-08T17:08:22;22.38;;;9.23;;
34978;SDS011;21185;50.978;13.720;2024-03-08T17:13:25;18.02;;;9.32;;
34978;SDS011;21185;50.978;13.720;2024-03-08T17:18:27;22.58;;;10.35;;
34978;SDS011;21185;50.978;13.720;2024-03-08T17:23:30;17.67;;;8.90;;
34978;SDS011;21185;50.978;13.720;2024-03-08T17:28:33;16.90;;;8.10;;
34978;SDS011;21185;50.978;13.720;2024-03-08T17:33:38;17.45;;;7.85;;
34978;SDS011;21185;50.978;13.720;2024-03-08T17:38:43;14.57;;;7.65;;
34978;SDS011;21185;50.978;13.720;2024-03-08T17:43:50;16.10;;;8.68;;
34978;SDS011;21185;50.978;13.720;2024-03-08T17:48:52;16.50;;;7.72;;
34978;SDS011;21185;50.978;13.720;2024-03-08T17:53:56;15.48;;;7.22;;
34978;SDS011;21185;50.978;13.720;2024-03-08T17:59:00;13.30;;;7.28;;
34978;SDS011;21185;50.978;13.720;2024-03-08T18:04:04;12.90;;;7.05;;
34978;SDS011;21185;50.978;13.720;2024-03-08T18:09:08;17.73;;;9.20;;
34978;SDS011;21185;50.978;13.720;2024-03-08T18:14:14;15.35;;;7.70;;
34978;SDS011;21185;50.978;13.720;2024-03-08T18:19:17;22.75;;;8.02;;
34978;SDS011;21185;50.978;13.720;2024-03-08T18:24:21;14.77;;;8.07;;
34978;SDS011;21185;50.978;13.720;2024-03-08T18:29:23;12.52;;;6.70;;
34978;SDS011;21185;50.978;13.720;2024-03-08T18:34:25;16.65;;;8.45;;
34978;SDS011;21185;50.978;13.720;2024-03-08T18:39:27;12.52;;;7.18;;
34978;SDS011;21185;50.978;13.720;2024-03-08T18:44:29;17.88;;;8.23;;
34978;SDS011;21185;50.978;13.720;2024-03-08T18:49:31;15.45;;;7.85;;
34978;SDS011;21185;50.978;13.720;2024-03-08T18:54:33;14.45;;;8.70;;
34978;SDS011;21185;50.978;13.720;2024-03-08T18:59:35;14.45;;;8.00;;
34978;SDS011;21185;50.978;13.720;2024-03-08T19:04:39;17.35;;;7.82;;
34978;SDS011;21185;50.978;13.720;2024-03-08T19:09:42;13.30;;;7.60;;
34978;SDS011;21185;50.978;13.720;2024-03-08T19:14:46;15.23;;;7.40;;
34978;SDS011;21185;50.978;13.720;2024-03-08T19:19:49;19.65;;;8.63;;
34978;SDS011;21185;50.978;13.720;2024-03-08T19:24:50;14.50;;;7.97;;
34978;SDS011;21185;50.978;13.720;2024-03-08T19:29:53;16.98;;;7.90;;
34978;SDS011;21185;50.978;13.720;2024-03-08T19:34:55;16.02;;;8.27;;
34978;SDS011;21185;50.978;13.720;2024-03-08T19:39:59;14.23;;;7.40;;
34978;SDS011;21185;50.978;13.720;2024-03-08T19:50:12;15.10;;;6.90;;
34978;SDS011;21185;50.978;13.720;2024-03-08T19:55:19;14.80;;;6.20;;
34978;SDS011;21185;50.978;13.720;2024-03-08T20:00:22;12.00;;;6.80;;
34978;SDS011;21185;50.978;13.720;2024-03-08T20:05:36;13.63;;;7.20;;
34978;SDS011;21185;50.978;13.720;2024-03-08T20:10:42;15.15;;;7.38;;
34978;SDS011;21185;50.978;13.720;2024-03-08T20:15:44;15.80;;;7.75;;
34978;SDS011;21185;50.978;13.720;2024-03-08T20:20:56;15.35;;;8.15;;
34978;SDS011;21185;50.978;13.720;2024-03-08T20:25:59;22.02;;;8.27;;
34978;SDS011;21185;50.978;13.720;2024-03-08T20:31:04;18.75;;;8.50;;
34978;SDS011;21185;50.978;13.720;2024-03-08T20:36:07;18.15;;;8.20;;
34978;SDS011;21185;50.978;13.720;2024-03-08T20:41:14;18.38;;;8.40;;
34978;SDS011;21185;50.978;13.720;2024-03-08T20:46:17;19.13;;;7.97;;
34978;SDS011;21185;50.978;13.720;2024-03-08T20:51:20;17.55;;;8.05;;
34978;SDS011;21185;50.978;13.720;2024-03-08T20:56:22;18.05;;;8.93;;
34978;SDS011;21185;50.978;13.720;2024-03-08T21:01:24;19.95;;;9.32;;
34978;SDS011;21185;50.978;13.720;2024-03-08T21:06:32;19.45;;;9.45;;
34978;SDS011;21185;50.978;13.720;2024-03-08T21:11:36;20.95;;;10.02;;
34978;SDS011;21185;50.978;13.720;2024-03-08T21:16:38;23.17;;;9.70;;
34978;SDS011;21185;50.978;13.720;2024-03-08T21:21:40;30.58;;;10.40;;
34978;SDS011;21185;50.978;13.720;2024-03-08T21:26:42;18.73;;;9.18;;
34978;SDS011;21185;50.978;13.720;2024-03-08T21:31:44;22.15;;;10.55;;
34978;SDS011;21185;50.978;13.720;2024-03-08T21:36:47;24.15;;;9.60;;
34978;SDS011;21185;50.978;13.720;2024-03-08T21:41:50;23.83;;;10.07;;
34978;SDS011;21185;50.978;13.720;2024-03-08T21:46:52;22.63;;;9.18;;
34978;SDS011;21185;50.978;13.720;2024-03-08T21:51:54;19.92;;;8.45;;
34978;SDS011;21185;50.978;13.720;2024-03-08T21:56:56;20.15;;;9.90;;
34978;SDS011;21185;50.978;13.720;2024-03-08T22:02:01;24.38;;;11.32;;
34978;SDS011;21185;50.978;13.720;2024-03-08T22:07:05;23.63;;;10.48;;
34978;SDS011;21185;50.978;13.720;2024-03-08T22:12:07;25.02;;;11.00;;
34978;SDS011;21185;50.978;13.720;2024-03-08T22:17:10;23.63;;;10.02;;
34978;SDS011;21185;50.978;13.720;2024-03-08T22:22:16;23.00;;;10.80;;
34978;SDS011;21185;50.978;13.720;2024-03-08T22:27:25;25.30;;;11.32;;
34978;SDS011;21185;50.978;13.720;2024-03-08T22:32:27;18.65;;;10.40;;
34978;SDS011;21185;50.978;13.720;2024-03-08T22:37:30;25.40;;;11.20;;
34978;SDS011;21185;50.978;13.720;2024-03-08T22:42:32;23.77;;;10.93;;
34978;SDS011;21185;50.978;13.720;2024-03-08T22:47:34;22.70;;;9.63;;
34978;SDS011;21185;50.978;13.720;2024-03-08T22:52:36;20.85;;;9.30;;
34978;SDS011;21185;50.978;13.720;2024-03-08T22:57:39;24.15;;;9.93;;
34978;SDS011;21185;50.978;13.720;2024-03-08T23:02:42;23.85;;;11.40;;
34978;SDS011;21185;50.978;13.720;2024-03-08T23:07:45;18.25;;;10.10;;
34978;SDS011;21185;50.978;13.720;2024-03-08T23:12:50;18.70;;;10.18;;
34978;SDS011;21185;50.978;13.720;2024-03-08T23:17:55;20.38;;;9.57;;
34978;SDS011;21185;50.978;13.720;2024-03-08T23:22:58;26.65;;;10.98;;
34978;SDS011;21185;50.978;13.720;2024-03-08T23:28:07;17.17;;;9.05;;
34978;SDS011;21185;50.978;13.720;2024-03-08T23:38:16;18.50;;;9.25;;
34978;SDS011;21185;50.978;13.720;2024-03-08T23:43:20;16.23;;;7.75;;
34978;SDS011;21185;50.978;13.720;2024-03-08T23:48:22;25.20;;;9.38;;
34978;SDS011;21185;50.978;13.720;2024-03-08T23:53:27;17.83;;;8.60;;
34978;SDS011;21185;50.978;13.720;2024-03-08T23:58:29;16.08;;;7.55;;
